createdAt,value
2023-10-30T00:00:24.851Z,47.50
2023-10-30T00:02:51.639Z,47.41
2023-10-30T00:05:18.274Z,47.42
2023-10-30T00:07:44.813Z,47.50
2023-10-30T00:10:11.410Z,47.32
2023-10-30T00:12:38.065Z,47.33
2023-10-30T00:15:04.755Z,47.42
2023-10-30T00:17:31.392Z,47.15
2023-10-30T00:19:58.005Z,47.25
2023-10-30T00:22:24.553Z,47.46
2023-10-30T00:24:51.135Z,47.37
2023-10-30T00:27:17.741Z,47.44
2023-10-30T00:29:44.292Z,47.16
2023-10-30T00:32:10.793Z,47.11
2023-10-30T00:34:37.350Z,47.23
2023-10-30T00:37:03.894Z,47.15
2023-10-30T00:39:30.521Z,47.00
2023-10-30T00:41:57.179Z,47.01
2023-10-30T00:44:23.775Z,47.15
2023-10-30T00:46:50.409Z,46.78
2023-10-30T00:49:17.040Z,46.82
2023-10-30T00:51:43.634Z,46.84
2023-10-30T00:54:10.200Z,47.03
2023-10-30T00:56:36.797Z,47.01
2023-10-30T00:59:03.454Z,47.01
2023-10-30T01:01:30.083Z,46.80
2023-10-30T01:03:56.759Z,46.87
2023-10-30T01:06:23.481Z,46.74
2023-10-30T01:08:50.091Z,46.95
2023-10-30T01:11:16.677Z,46.83
2023-10-30T01:13:43.240Z,46.72
2023-10-30T01:16:09.748Z,46.87
2023-10-30T01:18:36.429Z,46.92
2023-10-30T01:21:03.030Z,46.76
2023-10-30T01:23:29.569Z,46.81
2023-10-30T01:25:56.146Z,46.95
2023-10-30T01:28:22.803Z,46.66
2023-10-30T01:30:49.525Z,46.59
2023-10-30T01:33:16.158Z,46.44
2023-10-30T01:35:42.825Z,46.36
2023-10-30T01:38:09.346Z,46.64
2023-10-30T01:40:35.913Z,46.55
2023-10-30T01:43:02.499Z,46.62
2023-10-30T01:45:29.068Z,46.45
2023-10-30T01:47:57.321Z,46.36
2023-10-30T01:50:24.173Z,46.57
2023-10-30T01:52:50.786Z,46.72
2023-10-30T01:55:17.382Z,46.74
2023-10-30T01:57:43.962Z,46.59
2023-10-30T02:00:10.521Z,46.55
2023-10-30T02:02:37.180Z,46.53
2023-10-30T02:05:03.865Z,46.52
2023-10-30T02:07:30.444Z,46.47
2023-10-30T02:09:57.019Z,46.62
2023-10-30T02:12:23.636Z,46.54
2023-10-30T02:14:50.229Z,46.41
2023-10-30T02:17:16.748Z,46.47
2023-10-30T02:19:43.372Z,46.20
2023-10-30T02:22:10.081Z,46.11
2023-10-30T02:24:36.755Z,46.11
2023-10-30T02:27:03.407Z,45.95
2023-10-30T02:29:29.949Z,46.27
2023-10-30T02:31:56.529Z,46.22
2023-10-30T02:34:23.144Z,45.82
2023-10-30T02:36:49.821Z,45.84
2023-10-30T02:39:16.611Z,46.19
2023-10-30T02:41:43.245Z,46.14
2023-10-30T02:44:09.821Z,46.38
2023-10-30T02:46:36.426Z,46.12
2023-10-30T02:49:03.032Z,46.17
2023-10-30T02:51:29.613Z,46.14
2023-10-30T02:53:56.227Z,45.99
2023-10-30T02:56:22.838Z,45.99
2023-10-30T02:58:49.383Z,45.61
2023-10-30T03:01:15.925Z,45.75
2023-10-30T03:03:42.648Z,45.91
2023-10-30T03:06:09.372Z,45.85
2023-10-30T03:08:35.943Z,45.88
2023-10-30T03:11:02.555Z,46.00
2023-10-30T03:13:29.113Z,46.01
2023-10-30T03:15:55.833Z,45.81
2023-10-30T03:18:22.513Z,45.80
2023-10-30T03:20:49.090Z,45.85
2023-10-30T03:23:15.688Z,45.64
2023-10-30T03:25:42.178Z,45.74
2023-10-30T03:28:08.762Z,45.87
2023-10-30T03:30:35.313Z,45.98
2023-10-30T03:33:01.952Z,45.95
2023-10-30T03:35:28.565Z,45.93
2023-10-30T03:37:55.125Z,45.86
2023-10-30T03:40:21.729Z,46.03
2023-10-30T03:42:48.301Z,46.13
2023-10-30T03:45:14.943Z,45.94
2023-10-30T03:47:41.633Z,45.76
2023-10-30T03:50:08.387Z,46.01
2023-10-30T03:52:34.970Z,45.88
2023-10-30T03:55:01.517Z,45.74
2023-10-30T03:57:28.257Z,45.68
2023-10-30T03:59:54.865Z,45.85
2023-10-30T04:02:21.430Z,45.90
2023-10-30T04:04:48.030Z,45.61
2023-10-30T04:07:14.575Z,45.53
2023-10-30T04:09:41.174Z,45.66
2023-10-30T04:12:07.724Z,45.73
2023-10-30T04:14:34.315Z,45.53
2023-10-30T04:17:00.873Z,45.49
2023-10-30T04:19:27.450Z,45.74
2023-10-30T04:21:54.108Z,45.51
2023-10-30T04:24:20.804Z,45.66
2023-10-30T04:26:47.403Z,45.60
2023-10-30T04:29:13.959Z,45.59
2023-10-30T04:31:40.542Z,45.53
2023-10-30T04:34:07.132Z,45.46
2023-10-30T04:36:33.755Z,45.76
2023-10-30T04:39:00.398Z,45.82
2023-10-30T04:41:27.033Z,45.87
2023-10-30T04:43:53.601Z,45.62
2023-10-30T04:46:20.258Z,45.85
2023-10-30T04:48:46.894Z,45.61
2023-10-30T04:51:13.590Z,45.26
2023-10-30T04:53:40.172Z,45.42
2023-10-30T04:56:06.781Z,45.21
2023-10-30T04:58:33.284Z,45.32
2023-10-30T05:01:00.024Z,45.30
2023-10-30T05:03:26.952Z,45.06
2023-10-30T05:05:53.782Z,45.32
2023-10-30T05:08:20.660Z,45.37
2023-10-30T05:10:47.386Z,45.45
2023-10-30T05:13:14.144Z,45.43
2023-10-30T05:15:40.730Z,45.50
2023-10-30T05:18:07.394Z,45.65
2023-10-30T05:20:33.885Z,45.64
2023-10-30T05:23:00.464Z,45.24
2023-10-30T05:25:39.530Z,45.12
2023-10-30T05:28:09.040Z,44.92
2023-10-30T05:30:35.745Z,45.10
2023-10-30T05:33:02.389Z,46.44
2023-10-30T05:35:29.006Z,46.79
2023-10-30T05:37:55.591Z,46.94
2023-10-30T05:40:22.149Z,47.09
2023-10-30T05:42:49.102Z,47.49
2023-10-30T05:45:15.983Z,47.49
2023-10-30T05:47:42.720Z,48.64
2023-10-30T05:50:09.576Z,50.27
2023-10-30T05:52:36.155Z,50.41
2023-10-30T05:55:02.705Z,50.19
2023-10-30T05:57:29.308Z,51.78
2023-10-30T05:59:55.892Z,51.03
2023-10-30T06:02:22.505Z,51.78
2023-10-30T06:04:49.031Z,51.76
2023-10-30T06:07:15.669Z,51.69
2023-10-30T06:09:42.200Z,52.15
2023-10-30T06:12:08.832Z,51.86
2023-10-30T06:14:35.402Z,51.59
2023-10-30T06:17:01.964Z,51.93
2023-10-30T06:19:28.488Z,52.12
2023-10-30T06:21:55.052Z,52.31
2023-10-30T06:24:21.625Z,52.04
2023-10-30T06:26:48.258Z,52.17
2023-10-30T06:29:14.880Z,52.34
2023-10-30T06:31:41.480Z,52.26
2023-10-30T06:34:08.161Z,52.29
2023-10-30T06:36:34.937Z,52.21
2023-10-30T06:39:01.633Z,52.38
2023-10-30T06:41:28.098Z,52.37
2023-10-30T06:43:54.710Z,52.30
2023-10-30T06:46:21.321Z,52.35
2023-10-30T06:48:47.950Z,52.30
2023-10-30T06:51:14.648Z,52.41
2023-10-30T06:53:41.221Z,52.14
2023-10-30T06:56:07.776Z,51.94
2023-10-30T06:58:34.405Z,52.19
2023-10-30T07:01:01.056Z,52.22
2023-10-30T07:03:27.773Z,51.80
2023-10-30T07:05:54.504Z,51.86
2023-10-30T07:08:21.109Z,51.97
2023-10-30T07:10:47.676Z,51.74
2023-10-30T07:13:14.246Z,51.77
2023-10-30T07:15:40.802Z,51.65
2023-10-30T07:18:07.519Z,51.67
2023-10-30T07:20:34.090Z,51.80
2023-10-30T07:23:00.703Z,51.63
2023-10-30T07:25:27.204Z,51.59
2023-10-30T07:27:53.838Z,51.44
2023-10-30T07:30:20.468Z,51.47
2023-10-30T07:32:47.157Z,51.67
2023-10-30T07:35:13.862Z,51.66
2023-10-30T07:37:40.416Z,51.64
2023-10-30T07:40:06.970Z,51.62
2023-10-30T07:42:33.606Z,51.51
2023-10-30T07:45:00.215Z,51.39
2023-10-30T07:47:42.566Z,51.47
2023-10-30T07:50:09.670Z,51.58
2023-10-30T07:52:36.232Z,51.62
2023-10-30T07:55:02.826Z,51.51
2023-10-30T07:57:29.435Z,51.43
2023-10-30T07:59:56.045Z,51.28
2023-10-30T08:02:22.631Z,51.34
2023-10-30T08:04:49.378Z,51.27
2023-10-30T08:07:16.026Z,51.26
2023-10-30T08:09:42.602Z,51.23
2023-10-30T08:12:09.226Z,51.19
2023-10-30T08:14:37.620Z,51.41
2023-10-30T08:17:04.431Z,51.18
2023-10-30T08:19:31.083Z,51.24
2023-10-30T08:21:57.720Z,51.12
2023-10-30T08:24:24.292Z,51.03
2023-10-30T08:26:50.881Z,51.29
2023-10-30T08:29:17.374Z,51.27
2023-10-30T08:31:43.964Z,51.82
2023-10-30T08:34:10.604Z,51.60
2023-10-30T08:36:38.699Z,52.45
2023-10-30T08:39:05.310Z,52.58
2023-10-30T08:41:31.916Z,52.98
2023-10-30T08:43:58.544Z,52.79
2023-10-30T08:46:25.164Z,53.15
2023-10-30T08:48:51.854Z,53.53
2023-10-30T08:51:18.492Z,53.46
2023-10-30T08:53:45.239Z,53.49
2023-10-30T08:56:11.863Z,53.40
2023-10-30T08:58:38.434Z,53.69
2023-10-30T09:01:05.008Z,53.41
2023-10-30T09:03:31.740Z,53.49
2023-10-30T09:05:58.732Z,53.57
2023-10-30T09:08:26.189Z,53.36
2023-10-30T09:10:52.831Z,53.73
2023-10-30T09:13:19.346Z,53.55
2023-10-30T09:15:46.048Z,53.64
2023-10-30T09:18:12.734Z,53.68
2023-10-30T09:20:39.261Z,53.61
2023-10-30T09:23:05.829Z,53.49
2023-10-30T09:25:32.372Z,53.44
2023-10-30T09:27:59.078Z,53.49
2023-10-30T09:30:25.804Z,53.52
2023-10-30T09:32:52.411Z,53.33
2023-10-30T09:35:18.972Z,53.14
2023-10-30T09:37:45.517Z,53.39
2023-10-30T09:40:12.063Z,53.37
2023-10-30T09:42:38.710Z,53.28
2023-10-30T09:45:05.286Z,53.10
2023-10-30T09:47:31.878Z,53.08
2023-10-30T09:49:58.511Z,53.28
2023-10-30T09:52:25.069Z,53.05
2023-10-30T09:54:51.877Z,53.12
2023-10-30T09:57:18.689Z,52.89
2023-10-30T09:59:45.291Z,53.02
2023-10-30T10:02:12.005Z,52.85
2023-10-30T10:04:38.630Z,53.07
2023-10-30T10:07:05.230Z,52.67
2023-10-30T10:09:31.840Z,52.88
2023-10-30T10:11:58.449Z,52.82
2023-10-30T10:14:25.124Z,52.92
2023-10-30T10:16:51.734Z,52.98
2023-10-30T10:19:18.358Z,52.67
2023-10-30T10:21:44.993Z,52.77
2023-10-30T10:24:11.603Z,52.64
2023-10-30T10:26:38.176Z,52.67
2023-10-30T10:29:04.812Z,52.62
2023-10-30T10:31:31.398Z,52.75
2023-10-30T10:33:58.027Z,52.57
2023-10-30T10:36:24.755Z,52.41
2023-10-30T10:38:51.351Z,52.76
2023-10-30T10:41:17.942Z,52.44
2023-10-30T10:43:44.530Z,52.52
2023-10-30T10:46:11.146Z,52.55
2023-10-30T10:48:37.751Z,52.55
2023-10-30T10:51:04.369Z,52.55
2023-10-30T10:53:30.939Z,52.45
2023-10-30T10:55:57.489Z,52.44
2023-10-30T10:58:26.788Z,52.46
2023-10-30T11:00:54.453Z,52.47
2023-10-30T11:03:21.160Z,52.25
2023-10-30T11:05:47.750Z,52.36
2023-10-30T11:08:14.427Z,52.34
2023-10-30T11:10:41.162Z,52.22
2023-10-30T11:13:07.876Z,52.28
2023-10-30T11:15:34.500Z,52.32
2023-10-30T11:18:01.100Z,51.92
2023-10-30T11:20:27.701Z,52.01
2023-10-30T11:22:54.300Z,52.22
2023-10-30T11:25:22.083Z,52.19
2023-10-30T11:27:50.016Z,51.92
2023-10-30T11:30:16.585Z,52.17
2023-10-30T11:32:43.193Z,52.11
2023-10-30T11:35:09.772Z,52.07
2023-10-30T11:37:36.351Z,51.73
2023-10-30T11:40:03.031Z,51.92
2023-10-30T11:42:29.580Z,51.68
2023-10-30T11:44:56.220Z,51.83
2023-10-30T11:47:22.859Z,51.90
2023-10-30T11:49:49.439Z,51.85
2023-10-30T11:52:16.104Z,51.67
2023-10-30T11:54:42.798Z,51.93
2023-10-30T11:57:09.373Z,51.65
2023-10-30T11:59:35.990Z,51.71
2023-10-30T12:02:02.700Z,51.64
2023-10-30T12:04:29.792Z,51.81
2023-10-30T12:06:56.738Z,51.56
2023-10-30T12:09:23.624Z,51.58
2023-10-30T12:11:50.328Z,51.55
2023-10-30T12:14:17.132Z,51.56
2023-10-30T12:16:44.110Z,51.54
2023-10-30T12:19:11.062Z,51.82
2023-10-30T12:21:37.800Z,51.74
2023-10-30T12:24:04.635Z,51.74
2023-10-30T12:26:31.395Z,51.45
2023-10-30T12:28:57.970Z,51.62
2023-10-30T12:31:24.732Z,51.70
2023-10-30T12:33:51.402Z,51.59
2023-10-30T12:36:18.051Z,51.51
2023-10-30T12:38:44.628Z,51.77
2023-10-30T12:41:11.226Z,51.76
2023-10-30T12:43:37.825Z,51.64
2023-10-30T12:46:04.427Z,51.74
2023-10-30T12:48:30.993Z,51.33
2023-10-30T12:50:57.653Z,51.69
2023-10-30T12:53:24.226Z,51.27
2023-10-30T12:55:50.781Z,51.38
2023-10-30T12:58:17.358Z,51.69
2023-10-30T13:01:10.584Z,51.68
2023-10-30T13:03:30.687Z,51.39
2023-10-30T13:05:57.439Z,51.35
2023-10-30T13:08:23.981Z,51.44
2023-10-30T13:10:50.548Z,51.45
2023-10-30T13:13:17.132Z,51.32
2023-10-30T13:15:43.764Z,51.52
2023-10-30T13:18:10.396Z,51.52
2023-10-30T13:20:36.966Z,51.43
2023-10-30T13:23:03.565Z,51.33
2023-10-30T13:25:30.146Z,51.52
2023-10-30T13:27:56.786Z,51.37
2023-10-30T13:30:23.375Z,51.40
2023-10-30T13:32:50.017Z,51.49
2023-10-30T13:35:16.624Z,51.27
2023-10-30T13:37:43.194Z,51.54
2023-10-30T13:40:09.871Z,51.31
2023-10-30T13:42:36.529Z,51.37
2023-10-30T13:45:03.156Z,51.27
2023-10-30T13:47:29.686Z,51.31
2023-10-30T13:49:56.289Z,51.32
2023-10-30T13:52:22.904Z,51.46
2023-10-30T13:54:49.480Z,51.30
2023-10-30T13:57:16.122Z,51.31
2023-10-30T13:59:42.710Z,51.42
2023-10-30T14:02:09.340Z,51.22
2023-10-30T14:04:35.957Z,51.40
2023-10-30T14:07:02.578Z,51.52
2023-10-30T14:09:29.402Z,51.39
2023-10-30T14:11:56.154Z,51.30
2023-10-30T14:14:22.758Z,51.30
2023-10-30T14:16:49.322Z,51.58
2023-10-30T14:21:43.539Z,51.24
2023-10-30T14:24:10.309Z,51.33
2023-10-30T14:26:36.857Z,51.42
2023-10-30T14:29:03.423Z,51.42
2023-10-30T14:31:30.069Z,51.51
2023-10-30T14:33:56.703Z,51.29
2023-10-30T14:36:23.308Z,51.36
2023-10-30T14:38:49.928Z,51.24
2023-10-30T14:41:16.538Z,51.32
2023-10-30T14:43:43.177Z,51.29
2023-10-30T14:46:09.830Z,51.12
2023-10-30T14:48:36.847Z,51.20
2023-10-30T14:51:03.685Z,51.48
2023-10-30T14:53:30.521Z,51.45
2023-10-30T14:55:57.411Z,51.35
2023-10-30T14:58:24.267Z,51.34
2023-10-30T15:00:51.231Z,51.48
2023-10-30T15:03:18.121Z,51.15
2023-10-30T15:05:45.103Z,51.23
2023-10-30T15:08:11.734Z,51.14
2023-10-30T15:10:38.568Z,51.22
2023-10-30T15:13:05.255Z,51.32
2023-10-30T15:15:32.065Z,51.29
2023-10-30T15:17:58.760Z,51.15
2023-10-30T15:20:25.291Z,51.16
2023-10-30T15:22:51.945Z,51.27
2023-10-30T15:25:18.647Z,51.43
2023-10-30T15:27:45.218Z,51.38
2023-10-30T15:30:11.837Z,51.28
2023-10-30T15:32:38.438Z,51.27
2023-10-30T15:35:05.167Z,51.39
2023-10-30T15:37:31.869Z,51.22
2023-10-30T15:39:58.497Z,51.09
2023-10-30T15:42:25.024Z,51.33
2023-10-30T15:44:51.623Z,51.24
2023-10-30T15:47:24.828Z,51.29
2023-10-30T15:49:52.325Z,51.26
2023-10-30T15:59:51.313Z,51.27
2023-10-30T16:02:17.918Z,51.01
2023-10-30T16:05:01.414Z,51.09
2023-10-30T16:07:29.370Z,51.21
2023-10-30T16:10:12.128Z,51.07
2023-10-30T16:12:42.778Z,50.99
2023-10-30T16:15:09.373Z,51.17
2023-10-30T16:17:36.067Z,51.14
2023-10-30T16:22:32.137Z,51.16
2023-10-30T16:24:58.760Z,51.12
2023-10-30T16:27:25.295Z,51.22
2023-10-30T16:29:51.892Z,51.10
2023-10-30T16:32:18.505Z,51.06
2023-10-30T16:34:45.129Z,50.98
2023-10-30T16:37:11.728Z,51.11
2023-10-30T16:39:38.407Z,51.32
2023-10-30T16:42:05.017Z,51.10
2023-10-30T16:44:31.623Z,51.19
2023-10-30T16:46:58.286Z,51.02
2023-10-30T16:49:24.933Z,51.11
2023-10-30T16:51:51.521Z,50.95
2023-10-30T16:54:18.244Z,51.06
2023-10-30T16:56:44.865Z,51.21
2023-10-30T16:59:11.406Z,51.34
2023-10-30T17:01:37.973Z,51.44
2023-10-30T17:04:04.543Z,51.39
2023-10-30T17:06:31.206Z,51.28
2023-10-30T17:08:57.706Z,51.53
2023-10-30T17:11:24.356Z,51.32
2023-10-30T17:13:50.954Z,51.49
2023-10-30T17:16:17.562Z,51.54
2023-10-30T17:18:44.222Z,51.61
2023-10-30T17:21:10.867Z,51.34
2023-10-30T17:23:37.469Z,51.58
2023-10-30T17:26:04.145Z,51.57
2023-10-30T17:28:30.723Z,51.66
2023-10-30T17:30:57.317Z,51.73
2023-10-30T17:33:23.867Z,51.76
2023-10-30T17:35:50.457Z,51.79
2023-10-30T17:38:17.088Z,51.70
2023-10-30T17:40:43.810Z,51.79
2023-10-30T17:43:10.429Z,51.66
2023-10-30T17:45:37.067Z,51.64
2023-10-30T17:48:03.670Z,51.40
2023-10-30T17:50:30.311Z,51.77
2023-10-30T17:52:56.916Z,51.67
2023-10-30T17:55:23.524Z,51.76
2023-10-30T17:57:50.182Z,51.70
2023-10-30T18:00:16.802Z,51.59
2023-10-30T18:02:43.395Z,51.36
2023-10-30T18:05:10.127Z,51.61
2023-10-30T18:07:36.781Z,51.70
2023-10-30T18:10:03.411Z,51.81
2023-10-30T18:12:30.078Z,52.20
2023-10-30T18:14:56.776Z,51.88
2023-10-30T18:17:23.459Z,52.77
2023-10-30T18:19:50.246Z,52.87
2023-10-30T18:22:16.960Z,52.83
2023-10-30T18:24:43.533Z,52.67
2023-10-30T18:27:10.125Z,53.21
2023-10-30T18:29:36.717Z,53.73
2023-10-30T18:32:03.222Z,52.97
2023-10-30T18:34:30.343Z,53.51
2023-10-30T18:36:56.941Z,53.92
2023-10-30T18:39:23.489Z,53.58
2023-10-30T18:41:50.024Z,53.58
2023-10-30T18:44:16.573Z,53.65
2023-10-30T18:46:43.300Z,53.45
2023-10-30T18:49:09.881Z,53.45
2023-10-30T18:51:36.514Z,53.22
2023-10-30T18:54:03.144Z,53.35
2023-10-30T18:56:29.692Z,53.11
2023-10-30T18:58:56.319Z,53.46
2023-10-30T19:01:23.035Z,52.98
2023-10-30T19:03:49.781Z,53.14
2023-10-30T19:06:16.448Z,53.05
2023-10-30T19:08:43.059Z,53.38
2023-10-30T19:11:09.686Z,53.75
2023-10-30T19:13:36.349Z,53.62
2023-10-30T19:16:03.064Z,55.14
2023-10-30T19:18:29.653Z,54.57
2023-10-30T19:20:56.381Z,54.40
2023-10-30T19:23:22.945Z,54.36
2023-10-30T19:25:49.492Z,54.52
2023-10-30T19:28:16.098Z,54.15
2023-10-30T19:30:42.748Z,54.22
2023-10-30T19:33:09.294Z,54.30
2023-10-30T19:35:35.914Z,54.24
2023-10-30T19:38:02.599Z,54.42
2023-10-30T19:40:29.231Z,54.38
2023-10-30T19:42:55.813Z,54.08
2023-10-30T19:45:22.432Z,54.33
2023-10-30T19:47:49.096Z,53.96
2023-10-30T19:50:15.743Z,53.89
2023-10-30T19:52:42.417Z,53.93
2023-10-30T19:55:09.070Z,54.08
2023-10-30T19:57:35.862Z,53.66
2023-10-30T20:00:02.886Z,53.51
2023-10-30T20:02:29.822Z,53.72
2023-10-30T20:04:56.717Z,53.43
2023-10-30T20:07:23.452Z,53.33
2023-10-30T20:09:55.699Z,53.41
2023-10-30T20:12:30.992Z,53.41
2023-10-30T20:14:57.569Z,53.11
2023-10-30T20:17:24.299Z,53.24
2023-10-30T20:19:51.081Z,53.39
2023-10-30T20:22:18.272Z,53.21
2023-10-30T20:24:44.886Z,52.93
2023-10-30T20:27:11.624Z,52.82
2023-10-30T20:29:38.468Z,53.00
2023-10-30T20:32:05.424Z,53.06
2023-10-30T20:34:32.371Z,52.88
2023-10-30T20:36:59.288Z,52.93
2023-10-30T20:39:26.211Z,52.80
2023-10-30T20:41:52.919Z,52.75
2023-10-30T20:44:19.635Z,52.45
2023-10-30T20:46:46.471Z,52.71
2023-10-30T20:49:13.342Z,52.33
2023-10-30T20:51:40.200Z,52.35
2023-10-30T20:54:07.143Z,52.17
2023-10-30T20:56:34.107Z,52.50
2023-10-30T20:59:01.031Z,52.24
2023-10-30T21:01:27.729Z,52.02
2023-10-30T21:03:54.429Z,52.13
2023-10-30T21:06:21.077Z,51.94
2023-10-30T21:08:47.631Z,51.88
2023-10-30T21:11:14.234Z,51.60
2023-10-30T21:13:40.846Z,51.69
2023-10-30T21:16:07.558Z,51.41
2023-10-30T21:18:34.194Z,51.57
2023-10-30T21:21:00.840Z,51.33
2023-10-30T21:23:27.404Z,51.18
2023-10-30T21:25:54.013Z,51.37
2023-10-30T21:28:20.643Z,51.53
2023-10-30T21:30:47.275Z,51.34
2023-10-30T21:33:13.925Z,51.20
2023-10-30T21:35:40.555Z,51.09
2023-10-30T21:38:07.118Z,51.39
2023-10-30T21:40:33.769Z,51.46
2023-10-30T21:43:00.433Z,51.33
2023-10-30T21:45:27.044Z,51.10
2023-10-30T21:47:53.681Z,50.76
2023-10-30T21:50:20.245Z,51.11
2023-10-30T21:52:46.980Z,50.76
2023-10-30T21:55:13.622Z,50.77
2023-10-30T21:57:40.279Z,50.78
2023-10-30T22:00:06.868Z,50.52
2023-10-30T22:02:33.801Z,50.62
2023-10-30T22:05:00.671Z,50.52
2023-10-30T22:07:27.286Z,50.59
2023-10-30T22:09:53.836Z,50.29
2023-10-30T22:12:20.369Z,50.34
2023-10-30T22:14:47.089Z,50.19
2023-10-30T22:17:14.124Z,49.92
2023-10-30T22:19:41.998Z,50.26
2023-10-30T22:22:08.909Z,50.31
2023-10-30T22:24:35.446Z,50.12
2023-10-30T22:27:02.007Z,49.75
2023-10-30T22:29:28.569Z,49.90
2023-10-30T22:31:55.175Z,50.09
2023-10-30T22:34:21.755Z,49.78
2023-10-30T22:36:48.431Z,49.45
2023-10-30T22:39:15.034Z,49.77
2023-10-30T22:41:41.641Z,49.72
2023-10-30T22:44:08.283Z,49.47
2023-10-30T22:46:34.955Z,49.65
2023-10-30T22:49:01.561Z,49.34
2023-10-30T22:51:28.172Z,49.42
2023-10-30T22:53:54.764Z,49.33
2023-10-30T22:56:21.422Z,49.63
2023-10-30T22:58:48.063Z,49.14
2023-10-30T23:01:14.727Z,49.04
2023-10-30T23:03:41.391Z,48.88
2023-10-30T23:06:08.074Z,49.32
2023-10-30T23:08:34.748Z,48.90
2023-10-30T23:11:01.498Z,49.61
2023-10-30T23:13:28.113Z,49.29
2023-10-30T23:15:54.611Z,48.98
2023-10-30T23:18:21.236Z,49.09
2023-10-30T23:20:47.855Z,48.89
2023-10-30T23:23:14.449Z,48.98
2023-10-30T23:25:41.138Z,48.08
2023-10-30T23:28:07.784Z,48.26
2023-10-30T23:30:34.400Z,47.90
2023-10-30T23:33:00.926Z,48.42
2023-10-30T23:35:27.549Z,48.24
2023-10-30T23:37:59.515Z,47.88
2023-10-30T23:40:29.191Z,48.08
2023-10-30T23:42:55.833Z,47.79
2023-10-30T23:45:22.407Z,47.70
2023-10-30T23:47:49.176Z,47.78
2023-10-30T23:50:15.842Z,47.48
2023-10-30T23:52:42.448Z,47.59
2023-10-30T23:55:09.075Z,47.42
2023-10-30T23:57:35.643Z,47.28
